Latest Weather Observations for Jandakot

IDW60801

Issued at 9:03 pm WST Tuesday 28 January 2020 (issued every 10 minutes, with the page automatically refreshed every 10 minutes)

About weather observations | Map of weather stations | Latest weather observations for WA | Other Formats
Station Details ID: 009172 Name: JANDAKOT AERO Lat: -32.10 Lon: 115.88 Height: 30.0 m
Data from the previous 72 hours. | See also: Recent months at Jandakot
Date/Time
WST
Temp
°C
App
Temp
°C
Dew
Point
°C
Rel
Hum
%
Delta-T
°C
Wind Press
QNH
hPa
Press
MSL
hPa
Rain since
9am
mm
Dir  Spd
km/h
Gust
km/h
Spd
kts
Gust
kts
28/09:00pm 21.7 20.8 19.1 85 1.6 SW 22 30 12 16 1009.5 1009.3 0.0
28/08:30pm 22.1 21.5 18.9 82 2.0 SW 20 28 11 15 1009.4 1009.2 0.0
28/08:00pm 22.6 22.0 18.4 77 2.6 SW 19 24 10 13 1009.4 1009.2 0.0
28/07:30pm 23.2 22.5 18.3 74 3.1 SW 19 26 10 14 1009.2 1009.0 0.0
28/07:00pm 24.2 23.2 17.9 68 4.0 SW 20 26 11 14 1009.0 1008.8 0.0
28/06:30pm 24.9 23.8 18.6 68 4.0 WSW 22 28 12 15 1008.8 1008.6 0.0
28/06:00pm 26.9 25.7 17.4 56 6.0 WSW 20 30 11 16 1008.4 1008.2 0.0
28/05:30pm 27.9 26.2 18.0 55 6.3 WSW 24 30 13 16 1008.1 1007.9 0.0
28/05:00pm 29.1 26.8 16.6 46 7.8 WSW 24 35 13 19 1007.8 1007.6 0.0
28/04:30pm 30.1 26.1 14.2 38 9.6 SW 28 39 15 21 1007.7 1007.5 0.0
28/04:00pm 30.0 27.0 16.8 45 8.3 SW 28 39 15 21 1007.8 1007.6 0.0
28/03:30pm 30.4 26.8 17.1 44 8.4 WSW 32 39 17 21 1007.9 1007.7 0.0
28/03:00pm 31.7 28.7 16.8 40 9.4 WSW 28 35 15 19 1007.9 1007.7 0.0
28/02:30pm 32.4 29.5 17.1 40 9.7 WSW 28 37 15 20 1008.0 1007.8 0.0
28/02:00pm 32.0 29.3 17.5 42 9.3 WSW 28 33 15 18 1008.1 1007.9 0.0
28/01:30pm 33.8 29.7 13.8 30 12.2 SW 28 35 15 19 1008.2 1008.0 0.0
28/01:00pm 33.2 29.6 15.2 33 11.2 WSW 28 35 15 19 1008.5 1008.3 0.0
28/12:30pm 32.2 28.4 15.7 37 10.3 WSW 30 37 16 20 1008.8 1008.6 0.0
28/12:00pm 33.4 29.5 14.5 32 11.6 W 28 35 15 19 1009.0 1008.8 0.0
28/11:30am 33.0 30.3 14.6 33 11.3 WSW 22 28 12 15 1009.0 1008.8 0.0
28/11:00am 33.4 30.9 14.0 31 11.9 WSW 20 35 11 19 1009.1 1008.9 0.0
28/10:30am 33.8 31.9 14.3 31 12.0 WSW 17 20 9 11 1009.2 1009.0 0.0
28/10:00am 32.5 32.5 15.1 35 10.8 WSW 9 15 5 8 1009.5 1009.3 0.0
28/09:30am 31.4 32.1 14.5 35 10.3 SSW 4 9 2 5 1009.7 1009.5 0.0
28/09:00am 30.0 30.5 14.9 39 9.2 SSW 6 9 3 5 1009.9 1009.7 0.0
28/08:30am 28.8 29.1 15.0 43 8.4 SSE 7 11 4 6 1009.9 1009.7 0.0
28/08:00am 28.3 27.5 15.2 44 8.0 SE 13 15 7 8 1009.8 1009.6 0.0
28/07:30am 27.2 26.4 15.2 47 7.3 ESE 13 17 7 9 1009.9 1009.7 0.0
28/07:00am 25.9 24.9 15.6 53 6.3 ESE 15 17 8 9 1009.8 1009.6 0.0
28/06:30am 24.6 24.2 15.2 55 5.7 ESE 11 13 6 7 1009.6 1009.4 0.0
28/06:00am 23.6 22.7 14.9 58 5.2 ESE 13 15 7 8 1009.5 1009.3 0.0
28/05:30am 23.1 22.0 14.4 58 5.1 SE 13 17 7 9 1009.3 1009.1 0.0
28/05:00am 24.3 22.5 14.4 54 5.9 ESE 17 20 9 11 1008.9 1008.7 0.0
28/04:30am 24.2 22.0 14.3 54 5.9 ESE 19 20 10 11 1008.6 1008.4 0.0
28/04:00am 22.3 21.2 14.2 60 4.8 ESE 13 20 7 11 1008.6 1008.4 0.0
28/03:30am 20.1 20.5 13.8 67 3.6 SSE 4 7 2 4 1008.5 1008.3 0.0
28/03:00am 20.5 21.7 13.7 65 3.9 CALM 0 0 0 0 1008.5 1008.3 0.0
28/02:30am 20.8 21.7 12.8 60 4.5 CALM 0 0 0 0 1008.7 1008.5 0.0
28/02:00am 20.7 21.8 13.6 64 4.1 CALM 0 0 0 0 1009.0 1008.8 0.0
28/01:30am 22.4 22.4 13.5 57 5.2 SSE 6 9 3 5 1008.8 1008.6 0.0
28/01:00am 23.2 22.2 13.4 54 5.7 SSE 11 13 6 7 1009.1 1008.9 0.0
28/12:30am 24.3 22.7 13.8 52 6.2 S 15 15 8 8 1009.3 1009.1 0.0
28/12:00am 22.6 22.7 14.4 60 4.8 S 7 9 4 5 1009.6 1009.4 0.0
 
Date/Time
WST
Temp
°C
App
Temp
°C
Dew
Point
°C
Rel
Hum
%
Delta-T
°C
Wind Press
QNH
hPa
Press
MSL
hPa
Rain since
9am
mm
Dir  Spd
km/h
Gust
km/h
Spd
kts
Gust
kts
27/11:30pm 24.1 23.9 14.8 56 5.5 S 9 11 5 6 1009.8 1009.6 0.0
27/11:00pm 25.4 24.2 15.1 53 6.2 S 15 19 8 10 1010.0 1009.8 0.0
27/10:30pm 26.3 25.6 15.4 51 6.6 S 13 17 7 9 1010.5 1010.3 0.0
27/10:00pm 26.8 26.3 15.8 51 6.7 S 13 15 7 8 1010.8 1010.6 0.0
27/09:30pm 27.7 26.7 15.7 48 7.4 S 15 19 8 10 1010.9 1010.7 0.0
27/09:00pm 28.5 27.4 15.4 45 8.0 SSW 15 19 8 10 1010.8 1010.6 0.0
27/08:30pm 29.2 27.9 15.7 44 8.3 SSW 17 22 9 12 1010.7 1010.5 0.0
27/08:00pm 29.3 28.8 15.8 44 8.4 SW 13 15 7 8 1010.4 1010.2 0.0
27/07:30pm 31.0 29.8 15.0 38 9.8 SW 15 17 8 9 1010.2 1010.0 0.0
27/07:00pm 32.5 30.1 13.7 32 11.4 SW 19 24 10 13 1010.0 1009.8 0.0
27/06:30pm 33.8 30.8 12.7 27 12.7 SW 20 28 11 15 1009.8 1009.6 0.0
27/06:00pm 34.6 30.8 12.3 26 13.4 SW 24 28 13 15 1009.6 1009.4 0.0
27/05:30pm 35.7 31.8 12.0 24 14.2 SW 24 28 13 15 1009.5 1009.3 0.0
27/05:00pm 36.7 32.8 12.2 23 14.8 SW 24 32 13 17 1009.5 1009.3 0.0
27/04:30pm 37.9 34.7 11.8 21 15.7 WSW 20 26 11 14 1009.4 1009.2 0.0
27/04:00pm 38.0 34.0 11.9 21 15.7 WSW 24 28 13 15 1009.3 1009.1 0.0
27/03:30pm 36.9 33.5 13.6 24 14.3 WSW 24 30 13 16 1009.6 1009.4 0.0
27/03:00pm 37.0 33.7 14.9 27 13.9 W 26 30 14 16 1009.7 1009.5 0.0
27/02:30pm 36.7 34.1 15.8 29 13.2 W 24 30 13 16 1009.9 1009.7 0.0
27/02:00pm 36.9 34.1 15.4 28 13.6 W 24 32 13 17 1010.3 1010.1 0.0
27/01:30pm 37.0 34.3 15.5 28 13.6 W 24 30 13 16 1010.5 1010.3 0.0
27/01:00pm 37.0 34.3 15.5 28 13.6 WSW 24 28 13 15 1010.7 1010.5 0.0
27/12:30pm 37.8 35.6 14.4 25 14.6 W 19 24 10 13 1010.9 1010.7 0.0
27/12:00pm 38.1 37.8 12.7 22 15.5 NNE 6 11 3 6 1011.2 1011.0 0.0
27/11:30am 38.1 36.7 13.3 22 15.3 ENE 13 22 7 12 1011.4 1011.2 0.0
27/11:00am 36.4 34.7 12.6 24 14.4 ESE 13 19 7 10 1011.8 1011.6 0.0
27/10:30am 35.2 33.8 13.4 27 13.3 ENE 13 24 7 13 1012.1 1011.9 0.0
27/10:00am 34.1 32.7 13.5 28 12.5 E 13 22 7 12 1012.3 1012.1 0.0
27/09:30am 32.8 31.2 12.9 29 11.9 ENE 13 17 7 9 1012.5 1012.3 0.0
27/09:00am 31.9 29.9 12.7 31 11.4 ENE 15 20 8 11 1012.6 1012.4 0.0
27/08:30am 30.2 28.2 12.6 34 10.4 E 15 22 8 12 1012.6 1012.4 0.0
27/08:00am 28.1 25.7 12.8 38 9.0 E 17 20 9 11 1012.7 1012.5 0.0
27/07:30am 25.9 23.7 13.4 46 7.3 ESE 17 20 9 11 1012.8 1012.6 0.0
27/07:00am 24.8 22.6 13.4 49 6.7 ESE 17 20 9 11 1012.9 1012.7 0.0
27/06:30am 24.0 21.7 12.9 50 6.4 E 17 24 9 13 1012.8 1012.6 0.0
27/06:00am 23.4 19.7 12.7 51 6.1 E 24 43 13 23 1012.3 1012.1 0.0
27/05:30am 23.4 19.7 12.7 51 6.1 E 24 35 13 19 1012.1 1011.9 0.0
27/05:00am 23.6 20.4 13.2 52 6.0 E 22 33 12 18 1012.0 1011.8 0.0
27/04:30am 24.3 21.2 13.5 51 6.3 E 22 28 12 15 1011.6 1011.4 0.0
27/04:00am 24.7 22.5 14.5 53 6.1 E 19 30 10 16 1011.4 1011.2 0.0
27/03:30am 25.3 23.3 15.0 53 6.2 E 19 30 10 16 1011.1 1010.9 0.0
27/03:00am 26.0 23.1 15.1 51 6.6 ESE 24 39 13 21 1010.9 1010.7 0.0
27/02:30am 26.5 24.0 15.2 49 6.8 E 22 41 12 22 1010.9 1010.7 0.0
27/02:00am 25.8 23.5 14.0 48 7.0 ESE 19 28 10 15 1010.9 1010.7 0.0
27/01:30am 25.1 23.9 13.9 49 6.6 ESE 13 20 7 11 1011.0 1010.8 0.0
27/01:00am 21.2 22.9 15.3 69 3.5 CALM 0 0 0 0 1011.3 1011.1 0.0
27/12:30am 22.4 22.6 15.7 66 4.0 SSE 9 13 5 7 1011.7 1011.5 0.0
27/12:00am 22.9 22.7 15.7 64 4.3 SSE 11 15 6 8 1011.9 1011.7 0.0
 
Date/Time
WST
Temp
°C
App
Temp
°C
Dew
Point
°C
Rel
Hum
%
Delta-T
°C
Wind Press
QNH
hPa
Press
MSL
hPa
Rain since
9am
mm
Dir  Spd
km/h
Gust
km/h
Spd
kts
Gust
kts
26/11:30pm 23.8 23.6 15.8 61 4.8 SSE 11 13 6 7 1012.1 1011.9 0.0
26/11:00pm 24.5 23.7 16.0 59 5.2 S 15 19 8 10 1012.3 1012.1 0.0
26/10:30pm 25.0 23.7 15.9 57 5.5 S 17 20 9 11 1012.5 1012.3 0.0
26/10:00pm 25.7 24.5 16.0 55 5.9 S 17 22 9 12 1012.8 1012.6 0.0
26/09:30pm 26.3 25.5 16.0 53 6.3 S 15 20 8 11 1012.8 1012.6 0.0
26/09:00pm 26.9 25.3 15.9 51 6.7 S 19 22 10 12 1012.9 1012.7 0.0
26/08:30pm 27.3 25.8 16.3 51 6.8 S 19 24 10 13 1012.6 1012.4 0.0
26/08:00pm 27.4 27.4 17.3 54 6.3 SW 13 24 7 13 1012.7 1012.5 0.0
26/07:30pm 28.2 28.0 17.7 53 6.7 SW 15 20 8 11 1012.4 1012.2 0.0
26/07:00pm 29.5 28.5 16.7 46 8.0 SW 17 20 9 11 1012.2 1012.0 0.0
26/06:30pm 30.5 29.2 16.9 44 8.6 SSW 19 22 10 12 1012.0 1011.8 0.0
26/06:00pm 30.7 29.2 16.7 43 8.8 SW 20 26 11 14 1011.8 1011.6 0.0
26/05:30pm 29.9 26.7 16.3 43 8.5 SW 28 35 15 19 1011.7 1011.5 0.0
26/05:00pm 30.4 26.7 16.0 41 9.0 SW 30 35 16 19 1011.6 1011.4 0.0
26/04:30pm 30.9 26.9 16.1 41 9.2 SW 32 37 17 20 1011.9 1011.7 0.0
26/04:00pm 31.7 28.5 17.2 42 9.2 SW 30 37 16 20 1011.8 1011.6 0.0
26/03:30pm 31.8 28.2 17.3 42 9.2 SW 32 39 17 21 1012.0 1011.8 0.0
26/03:00pm 31.9 29.6 18.5 45 8.7 WSW 28 35 15 19 1012.0 1011.8 0.0
26/02:30pm 32.7 29.9 18.1 42 9.4 WSW 30 37 16 20 1012.1 1011.9 0.0
26/02:00pm 33.7 31.7 18.2 39 10.1 WSW 26 32 14 17 1012.3 1012.1 0.0
26/01:30pm 34.7 32.9 17.0 35 11.3 W 22 28 12 15 1012.4 1012.2 0.0
26/01:00pm 34.3 34.1 16.6 34 11.3 W 13 20 7 11 1012.7 1012.5 0.0
26/12:30pm 34.6 33.2 14.5 30 12.4 S 15 20 8 11 1012.9 1012.7 0.0
26/12:00pm 33.7 32.7 14.7 32 11.7 SE 13 20 7 11 1013.2 1013.0 0.0
26/11:30am 32.4 32.1 14.5 33 11.0 SSE 9 15 5 8 1013.6 1013.4 0.0
26/11:00am 32.2 30.9 14.8 35 10.7 SE 15 20 8 11 1013.9 1013.7 0.0
26/10:30am 30.2 29.4 15.1 40 9.3 SSE 13 19 7 10 1014.3 1014.2 0.0
26/10:00am 29.0 28.2 15.2 43 8.4 SSE 13 17 7 9 1014.5 1014.4 0.0
26/09:30am 27.9 26.8 15.2 46 7.7 ESE 15 20 8 11 1014.9 1014.8 0.0
26/09:00am 26.9 25.8 15.3 49 7.0 E 15 20 8 11 1015.0 1014.9 0.0
26/08:30am 25.8 23.8 15.5 53 6.3 ESE 20 28 11 15 1015.3 1015.2 0.0
26/08:00am 24.7 22.3 15.3 56 5.7 ESE 22 30 12 16 1015.2 1015.1 0.0
26/07:30am 23.4 20.9 15.2 60 4.9 ESE 22 30 12 16 1015.3 1015.2 0.0
26/07:00am 22.5 20.4 15.1 63 4.4 ESE 20 26 11 14 1015.1 1015.0 0.0
26/06:30am 21.7 19.6 15.1 66 3.9 ESE 20 28 11 15 1014.8 1014.7 0.0
26/06:00am 21.4 18.4 14.8 66 3.9 ESE 24 35 13 19 1014.5 1014.4 0.0
26/05:30am 21.5 19.8 14.6 65 4.1 ESE 17 28 9 15 1014.5 1014.4 0.0
26/05:00am 21.8 19.6 14.4 63 4.3 ESE 19 26 10 14 1014.3 1014.2 0.0
26/04:30am 22.3 20.0 14.7 62 4.5 ESE 20 26 11 14 1014.1 1013.9 0.0
26/04:00am 22.2 20.5 14.8 63 4.4 ESE 17 26 9 14 1013.8 1013.6 0.0
26/03:30am 21.5 20.8 15.3 68 3.7 SE 13 19 7 10 1013.7 1013.5 0.0
26/03:00am 21.3 20.9 16.3 73 3.0 SSE 13 17 7 9 1013.5 1013.3 0.0
26/02:30am 21.2 20.7 16.8 76 2.7 S 15 19 8 10 1013.5 1013.3 0.0
26/02:00am 21.1 20.9 17.5 80 2.2 SSW 15 17 8 9 1013.5 1013.3 0.0
26/01:30am 21.1 21.3 17.7 81 2.1 S 13 15 7 8 1013.6 1013.4 0.0
26/01:00am 21.4 22.2 18.2 82 2.0 S 11 15 6 8 1013.7 1013.5 0.0
26/12:30am 21.5 22.4 18.3 82 2.0 SSW 11 11 6 6 1013.9 1013.7 0.0
26/12:00am 21.9 22.8 18.5 81 2.1 SSW 11 13 6 7 1014.0 1013.8 0.0
 
Date/Time
WST
Temp
°C
App
Temp
°C
Dew
Point
°C
Rel
Hum
%
Delta-T
°C
Wind Press
QNH
hPa
Press
MSL
hPa
Rain since
9am
mm
Dir  Spd
km/h
Gust
km/h
Spd
kts
Gust
kts
25/11:30pm 21.9 22.9 18.7 82 2.0 SSW 11 13 6 7 1013.9 1013.7 0.0
25/11:00pm 21.9 23.0 18.9 83 1.9 S 11 13 6 7 1013.9 1013.7 0.0
25/10:30pm 22.1 23.7 19.1 83 1.9 SSW 9 11 5 6 1014.0 1013.8 0.0
25/10:00pm 22.3 23.5 19.1 82 2.0 SW 11 13 6 7 1014.2 1014.0 0.0
25/09:30pm 22.5 23.8 19.3 82 2.0 SW 11 15 6 8 1014.3 1014.2 0.0

Other formats

Comma delimited format used in spreadsheet applications
http://www.bom.gov.au/fwo/IDW60801/IDW60801.94609.axf

JavaScript Object Notation format (JSON) in row-major order
http://www.bom.gov.au/fwo/IDW60801/IDW60801.94609.json

Data quality

Most of these data are generated automatically and are frequently updated. Quality checks on data are not normally performed. It is possible for incorrect values to appear. Refer to information at About Latest Weather Observations and please check the disclaimer before using these data.